sensor_id;sensor_type;location;lat;lon;timestamp;temperature;humidity
60909;DHT22;46780;48.128;-1.704;2022-10-12T00:01:54;16.20;63.10
60909;DHT22;46780;48.128;-1.704;2022-10-12T00:04:21;16.10;63.10
60909;DHT22;46780;48.128;-1.704;2022-10-12T00:06:48;16.10;63.00
60909;DHT22;46780;48.128;-1.704;2022-10-12T00:09:15;16.10;63.00
60909;DHT22;46780;48.128;-1.704;2022-10-12T00:11:42;16.00;63.20
60909;DHT22;46780;48.128;-1.704;2022-10-12T00:14:09;16.00;63.60
60909;DHT22;46780;48.128;-1.704;2022-10-12T00:16:36;15.90;63.70
60909;DHT22;46780;48.128;-1.704;2022-10-12T00:19:02;15.90;63.90
60909;DHT22;46780;48.128;-1.704;2022-10-12T00:21:29;15.80;63.80
60909;DHT22;46780;48.128;-1.704;2022-10-12T00:23:58;15.80;63.90
60909;DHT22;46780;48.128;-1.704;2022-10-12T00:26:26;15.80;63.90
60909;DHT22;46780;48.128;-1.704;2022-10-12T00:28:54;15.80;63.80
60909;DHT22;46780;48.128;-1.704;2022-10-12T00:31:20;15.80;64.00
60909;DHT22;46780;48.128;-1.704;2022-10-12T00:33:47;15.80;63.90
60909;DHT22;46780;48.128;-1.704;2022-10-12T00:36:19;15.70;63.70
60909;DHT22;46780;48.128;-1.704;2022-10-12T00:38:47;15.80;64.00
60909;DHT22;46780;48.128;-1.704;2022-10-12T00:41:16;15.70;64.20
60909;DHT22;46780;48.128;-1.704;2022-10-12T00:43:43;15.80;64.10
60909;DHT22;46780;48.128;-1.704;2022-10-12T00:46:14;15.80;63.90
60909;DHT22;46780;48.128;-1.704;2022-10-12T00:48:43;15.70;63.80
60909;DHT22;46780;48.128;-1.704;2022-10-12T00:51:12;15.70;63.80
60909;DHT22;46780;48.128;-1.704;2022-10-12T00:53:43;15.70;64.00
60909;DHT22;46780;48.128;-1.704;2022-10-12T00:56:13;15.70;64.20
60909;DHT22;46780;48.128;-1.704;2022-10-12T00:58:42;15.60;64.10
60909;DHT22;46780;48.128;-1.704;2022-10-12T01:01:09;15.60;64.20
60909;DHT22;46780;48.128;-1.704;2022-10-12T01:03:36;15.60;64.30
60909;DHT22;46780;48.128;-1.704;2022-10-12T01:06:03;15.60;64.30
60909;DHT22;46780;48.128;-1.704;2022-10-12T01:08:31;15.60;64.30
60909;DHT22;46780;48.128;-1.704;2022-10-12T01:10:57;15.60;64.50
60909;DHT22;46780;48.128;-1.704;2022-10-12T01:13:24;15.60;64.60
60909;DHT22;46780;48.128;-1.704;2022-10-12T01:16:00;15.60;64.70
60909;DHT22;46780;48.128;-1.704;2022-10-12T01:18:34;15.60;64.40
60909;DHT22;46780;48.128;-1.704;2022-10-12T01:21:10;15.50;64.30
60909;DHT22;46780;48.128;-1.704;2022-10-12T01:24:16;15.60;64.30
60909;DHT22;46780;48.128;-1.704;2022-10-12T01:27:00;15.50;64.40
60909;DHT22;46780;48.128;-1.704;2022-10-12T01:32:30;15.60;64.80
60909;DHT22;46780;48.128;-1.704;2022-10-12T01:35:02;15.50;64.70
60909;DHT22;46780;48.128;-1.704;2022-10-12T01:37:36;15.50;64.40
60909;DHT22;46780;48.128;-1.704;2022-10-12T01:40:12;15.50;64.40
60909;DHT22;46780;48.128;-1.704;2022-10-12T01:42:41;15.50;64.40
60909;DHT22;46780;48.128;-1.704;2022-10-12T01:45:11;15.40;64.20
60909;DHT22;46780;48.128;-1.704;2022-10-12T01:47:40;15.40;64.40
60909;DHT22;46780;48.128;-1.704;2022-10-12T01:50:10;15.40;64.60
60909;DHT22;46780;48.128;-1.704;2022-10-12T01:52:43;15.30;64.60
60909;DHT22;46780;48.128;-1.704;2022-10-12T01:55:22;15.30;64.70
60909;DHT22;46780;48.128;-1.704;2022-10-12T01:58:16;15.20;64.80
60909;DHT22;46780;48.128;-1.704;2022-10-12T02:00:52;15.20;64.70
60909;DHT22;46780;48.128;-1.704;2022-10-12T02:03:27;15.20;64.90
60909;DHT22;46780;48.128;-1.704;2022-10-12T02:06:01;15.10;65.00
60909;DHT22;46780;48.128;-1.704;2022-10-12T02:08:32;15.10;65.20
60909;DHT22;46780;48.128;-1.704;2022-10-12T02:11:02;15.00;65.30
60909;DHT22;46780;48.128;-1.704;2022-10-12T02:13:33;15.00;65.30
60909;DHT22;46780;48.128;-1.704;2022-10-12T02:16:03;15.00;65.50
60909;DHT22;46780;48.128;-1.704;2022-10-12T02:18:34;15.00;65.50
60909;DHT22;46780;48.128;-1.704;2022-10-12T02:21:06;14.90;65.50
60909;DHT22;46780;48.128;-1.704;2022-10-12T02:23:33;14.90;65.60
60909;DHT22;46780;48.128;-1.704;2022-10-12T02:26:01;14.90;65.70
60909;DHT22;46780;48.128;-1.704;2022-10-12T02:28:29;14.90;65.70
60909;DHT22;46780;48.128;-1.704;2022-10-12T02:31:01;14.90;65.80
60909;DHT22;46780;48.128;-1.704;2022-10-12T02:33:37;14.90;65.90
60909;DHT22;46780;48.128;-1.704;2022-10-12T02:36:10;14.90;66.00
60909;DHT22;46780;48.128;-1.704;2022-10-12T02:38:38;14.80;66.00
60909;DHT22;46780;48.128;-1.704;2022-10-12T02:41:11;14.80;66.10
60909;DHT22;46780;48.128;-1.704;2022-10-12T02:43:43;14.80;66.10
60909;DHT22;46780;48.128;-1.704;2022-10-12T02:46:12;14.80;66.20
60909;DHT22;46780;48.128;-1.704;2022-10-12T02:48:40;14.80;66.40
60909;DHT22;46780;48.128;-1.704;2022-10-12T02:51:08;14.70;66.30
60909;DHT22;46780;48.128;-1.704;2022-10-12T02:53:36;14.70;66.40
60909;DHT22;46780;48.128;-1.704;2022-10-12T02:56:05;14.70;66.40
60909;DHT22;46780;48.128;-1.704;2022-10-12T02:58:32;14.70;66.50
60909;DHT22;46780;48.128;-1.704;2022-10-12T03:00:58;14.70;66.70
60909;DHT22;46780;48.128;-1.704;2022-10-12T03:03:25;14.60;66.80
60909;DHT22;46780;48.128;-1.704;2022-10-12T03:05:53;14.60;66.90
60909;DHT22;46780;48.128;-1.704;2022-10-12T03:08:19;14.60;66.80
60909;DHT22;46780;48.128;-1.704;2022-10-12T03:10:46;14.60;66.80
60909;DHT22;46780;48.128;-1.704;2022-10-12T03:13:12;14.50;66.90
60909;DHT22;46780;48.128;-1.704;2022-10-12T03:15:39;14.50;67.10
60909;DHT22;46780;48.128;-1.704;2022-10-12T03:18:05;14.40;67.20
60909;DHT22;46780;48.128;-1.704;2022-10-12T03:20:32;14.40;67.50
60909;DHT22;46780;48.128;-1.704;2022-10-12T03:22:59;14.40;67.70
60909;DHT22;46780;48.128;-1.704;2022-10-12T03:25:26;14.30;67.90
60909;DHT22;46780;48.128;-1.704;2022-10-12T03:27:52;14.30;68.20
60909;DHT22;46780;48.128;-1.704;2022-10-12T03:30:19;14.30;68.40
60909;DHT22;46780;48.128;-1.704;2022-10-12T03:32:45;14.20;68.40
60909;DHT22;46780;48.128;-1.704;2022-10-12T03:35:12;14.20;68.50
60909;DHT22;46780;48.128;-1.704;2022-10-12T03:37:38;14.20;69.70
60909;DHT22;46780;48.128;-1.704;2022-10-12T03:40:09;14.10;68.90
60909;DHT22;46780;48.128;-1.704;2022-10-12T03:42:35;14.10;69.10
60909;DHT22;46780;48.128;-1.704;2022-10-12T03:45:02;14.10;69.10
60909;DHT22;46780;48.128;-1.704;2022-10-12T03:47:29;14.10;69.20
60909;DHT22;46780;48.128;-1.704;2022-10-12T03:49:55;14.10;69.00
60909;DHT22;46780;48.128;-1.704;2022-10-12T03:52:22;14.10;69.80
60909;DHT22;46780;48.128;-1.704;2022-10-12T03:54:48;14.10;68.80
60909;DHT22;46780;48.128;-1.704;2022-10-12T03:57:16;14.10;68.70
60909;DHT22;46780;48.128;-1.704;2022-10-12T03:59:42;14.10;68.60
60909;DHT22;46780;48.128;-1.704;2022-10-12T04:02:09;14.10;68.50
60909;DHT22;46780;48.128;-1.704;2022-10-12T04:04:35;14.00;68.40
60909;DHT22;46780;48.128;-1.704;2022-10-12T04:07:02;14.00;68.40
60909;DHT22;46780;48.128;-1.704;2022-10-12T04:09:28;14.00;68.30
60909;DHT22;46780;48.128;-1.704;2022-10-12T04:11:55;14.10;68.20
60909;DHT22;46780;48.128;-1.704;2022-10-12T04:14:23;14.00;68.10
60909;DHT22;46780;48.128;-1.704;2022-10-12T04:16:52;14.00;68.00
60909;DHT22;46780;48.128;-1.704;2022-10-12T04:19:18;14.00;68.20
60909;DHT22;46780;48.128;-1.704;2022-10-12T04:21:45;14.00;68.00
60909;DHT22;46780;48.128;-1.704;2022-10-12T04:24:11;14.00;68.10
60909;DHT22;46780;48.128;-1.704;2022-10-12T04:26:38;14.00;68.20
60909;DHT22;46780;48.128;-1.704;2022-10-12T04:29:04;13.90;68.20
60909;DHT22;46780;48.128;-1.704;2022-10-12T04:31:32;14.00;68.20
60909;DHT22;46780;48.128;-1.704;2022-10-12T04:33:59;14.00;68.10
60909;DHT22;46780;48.128;-1.704;2022-10-12T04:36:26;14.00;67.90
60909;DHT22;46780;48.128;-1.704;2022-10-12T04:38:52;14.00;67.80
60909;DHT22;46780;48.128;-1.704;2022-10-12T04:41:19;14.00;67.70
60909;DHT22;46780;48.128;-1.704;2022-10-12T04:43:45;14.00;67.70
60909;DHT22;46780;48.128;-1.704;2022-10-12T04:46:12;14.00;67.80
60909;DHT22;46780;48.128;-1.704;2022-10-12T04:48:40;14.00;67.80
60909;DHT22;46780;48.128;-1.704;2022-10-12T04:51:06;14.00;67.80
60909;DHT22;46780;48.128;-1.704;2022-10-12T04:53:33;14.00;67.80
60909;DHT22;46780;48.128;-1.704;2022-10-12T04:56:01;14.00;67.70
60909;DHT22;46780;48.128;-1.704;2022-10-12T04:58:28;14.00;68.00
60909;DHT22;46780;48.128;-1.704;2022-10-12T05:00:55;14.00;68.10
60909;DHT22;46780;48.128;-1.704;2022-10-12T05:03:21;14.00;68.10
60909;DHT22;46780;48.128;-1.704;2022-10-12T05:05:49;13.90;68.10
60909;DHT22;46780;48.128;-1.704;2022-10-12T05:08:16;13.90;69.00
60909;DHT22;46780;48.128;-1.704;2022-10-12T05:10:43;13.90;68.10
60909;DHT22;46780;48.128;-1.704;2022-10-12T05:13:09;13.80;68.10
60909;DHT22;46780;48.128;-1.704;2022-10-12T05:15:36;13.80;68.20
60909;DHT22;46780;48.128;-1.704;2022-10-12T05:18:02;13.70;68.20
60909;DHT22;46780;48.128;-1.704;2022-10-12T05:20:29;13.70;68.20
60909;DHT22;46780;48.128;-1.704;2022-10-12T05:22:57;13.70;69.20
60909;DHT22;46780;48.128;-1.704;2022-10-12T05:25:24;13.70;68.40
60909;DHT22;46780;48.128;-1.704;2022-10-12T05:27:50;13.70;68.30
60909;DHT22;46780;48.128;-1.704;2022-10-12T05:30:17;13.70;68.20
60909;DHT22;46780;48.128;-1.704;2022-10-12T05:32:43;13.70;68.10
60909;DHT22;46780;48.128;-1.704;2022-10-12T05:35:10;13.80;68.20
60909;DHT22;46780;48.128;-1.704;2022-10-12T05:37:37;13.70;68.30
60909;DHT22;46780;48.128;-1.704;2022-10-12T05:40:06;13.70;68.40
60909;DHT22;46780;48.128;-1.704;2022-10-12T05:42:32;13.60;68.60
60909;DHT22;46780;48.128;-1.704;2022-10-12T05:44:59;13.50;69.00
60909;DHT22;46780;48.128;-1.704;2022-10-12T05:47:25;13.50;69.40
60909;DHT22;46780;48.128;-1.704;2022-10-12T05:49:52;13.50;69.50
60909;DHT22;46780;48.128;-1.704;2022-10-12T05:52:18;13.50;69.70
60909;DHT22;46780;48.128;-1.704;2022-10-12T05:54:45;13.50;69.80
60909;DHT22;46780;48.128;-1.704;2022-10-12T05:57:13;13.50;70.00
60909;DHT22;46780;48.128;-1.704;2022-10-12T05:59:39;13.50;69.90
60909;DHT22;46780;48.128;-1.704;2022-10-12T06:02:06;13.50;69.90
60909;DHT22;46780;48.128;-1.704;2022-10-12T06:04:33;13.50;69.80
60909;DHT22;46780;48.128;-1.704;2022-10-12T06:06:59;13.50;69.90
60909;DHT22;46780;48.128;-1.704;2022-10-12T06:09:26;13.50;69.90
60909;DHT22;46780;48.128;-1.704;2022-10-12T06:11:53;13.50;69.90
60909;DHT22;46780;48.128;-1.704;2022-10-12T06:14:21;13.50;70.00
60909;DHT22;46780;48.128;-1.704;2022-10-12T06:16:47;13.50;70.00
60909;DHT22;46780;48.128;-1.704;2022-10-12T06:19:13;13.50;70.10
60909;DHT22;46780;48.128;-1.704;2022-10-12T06:21:40;13.40;70.10
60909;DHT22;46780;48.128;-1.704;2022-10-12T06:24:07;13.40;70.20
60909;DHT22;46780;48.128;-1.704;2022-10-12T06:26:33;13.50;70.30
60909;DHT22;46780;48.128;-1.704;2022-10-12T06:29:00;13.50;70.30
60909;DHT22;46780;48.128;-1.704;2022-10-12T06:31:28;13.50;70.20
60909;DHT22;46780;48.128;-1.704;2022-10-12T06:33:54;13.40;70.00
60909;DHT22;46780;48.128;-1.704;2022-10-12T06:36:21;13.40;70.10
60909;DHT22;46780;48.128;-1.704;2022-10-12T06:38:47;13.40;70.20
60909;DHT22;46780;48.128;-1.704;2022-10-12T06:41:14;13.30;70.20
60909;DHT22;46780;48.128;-1.704;2022-10-12T06:43:41;13.30;70.20
60909;DHT22;46780;48.128;-1.704;2022-10-12T06:46:08;13.40;70.60
60909;DHT22;46780;48.128;-1.704;2022-10-12T06:48:36;13.30;70.80
60909;DHT22;46780;48.128;-1.704;2022-10-12T06:51:02;13.30;70.80
60909;DHT22;46780;48.128;-1.704;2022-10-12T06:53:29;13.30;71.00
60909;DHT22;46780;48.128;-1.704;2022-10-12T06:55:56;13.30;71.10
60909;DHT22;46780;48.128;-1.704;2022-10-12T06:58:22;13.30;71.00
60909;DHT22;46780;48.128;-1.704;2022-10-12T07:00:49;13.30;71.00
60909;DHT22;46780;48.128;-1.704;2022-10-12T07:03:15;13.30;70.90
60909;DHT22;46780;48.128;-1.704;2022-10-12T07:05:43;13.30;70.90
60909;DHT22;46780;48.128;-1.704;2022-10-12T07:08:10;13.20;71.00
60909;DHT22;46780;48.128;-1.704;2022-10-12T07:10:36;13.20;71.20
60909;DHT22;46780;48.128;-1.704;2022-10-12T07:13:03;13.30;71.30
60909;DHT22;46780;48.128;-1.704;2022-10-12T07:15:29;13.30;71.40
60909;DHT22;46780;48.128;-1.704;2022-10-12T07:17:56;13.30;71.40
60909;DHT22;46780;48.128;-1.704;2022-10-12T07:20:22;13.30;71.50
60909;DHT22;46780;48.128;-1.704;2022-10-12T07:22:51;13.40;71.40
60909;DHT22;46780;48.128;-1.704;2022-10-12T07:25:17;13.40;71.30
60909;DHT22;46780;48.128;-1.704;2022-10-12T07:27:46;13.40;71.20
60909;DHT22;46780;48.128;-1.704;2022-10-12T07:30:13;13.50;71.30
60909;DHT22;46780;48.128;-1.704;2022-10-12T07:32:39;13.60;71.30
60909;DHT22;46780;48.128;-1.704;2022-10-12T07:35:06;13.70;71.30
60909;DHT22;46780;48.128;-1.704;2022-10-12T07:37:33;13.90;71.60
60909;DHT22;46780;48.128;-1.704;2022-10-12T07:40:01;14.10;71.60
60909;DHT22;46780;48.128;-1.704;2022-10-12T07:42:27;14.30;71.40
60909;DHT22;46780;48.128;-1.704;2022-10-12T07:44:54;14.50;70.90
60909;DHT22;46780;48.128;-1.704;2022-10-12T07:47:20;14.70;70.10
60909;DHT22;46780;48.128;-1.704;2022-10-12T07:49:47;15.00;69.60
60909;DHT22;46780;48.128;-1.704;2022-10-12T07:52:13;15.20;68.90
60909;DHT22;46780;48.128;-1.704;2022-10-12T07:54:40;15.50;68.40
60909;DHT22;46780;48.128;-1.704;2022-10-12T07:57:08;15.70;67.40
60909;DHT22;46780;48.128;-1.704;2022-10-12T07:59:34;15.90;66.50
60909;DHT22;46780;48.128;-1.704;2022-10-12T08:02:01;16.10;65.80
60909;DHT22;46780;48.128;-1.704;2022-10-12T08:04:28;16.20;65.10
60909;DHT22;46780;48.128;-1.704;2022-10-12T08:06:54;16.40;64.50
60909;DHT22;46780;48.128;-1.704;2022-10-12T08:09:21;16.50;63.80
60909;DHT22;46780;48.128;-1.704;2022-10-12T08:11:47;16.60;63.80
60909;DHT22;46780;48.128;-1.704;2022-10-12T08:14:16;16.80;63.60
60909;DHT22;46780;48.128;-1.704;2022-10-12T08:16:43;17.10;63.20
60909;DHT22;46780;48.128;-1.704;2022-10-12T08:19:10;17.40;62.20
60909;DHT22;46780;48.128;-1.704;2022-10-12T08:21:36;17.70;61.30
60909;DHT22;46780;48.128;-1.704;2022-10-12T08:24:03;18.10;60.60
60909;DHT22;46780;48.128;-1.704;2022-10-12T08:26:30;18.40;59.20
60909;DHT22;46780;48.128;-1.704;2022-10-12T08:28:57;18.80;58.20
60909;DHT22;46780;48.128;-1.704;2022-10-12T08:31:25;19.00;56.70
60909;DHT22;46780;48.128;-1.704;2022-10-12T08:33:51;19.20;55.60
60909;DHT22;46780;48.128;-1.704;2022-10-12T08:36:18;19.30;55.10
60909;DHT22;46780;48.128;-1.704;2022-10-12T08:38:49;19.60;54.70
60909;DHT22;46780;48.128;-1.704;2022-10-12T08:41:39;19.80;54.00
60909;DHT22;46780;48.128;-1.704;2022-10-12T08:44:22;20.20;53.00
60909;DHT22;46780;48.128;-1.704;2022-10-12T08:46:56;20.40;52.40
60909;DHT22;46780;48.128;-1.704;2022-10-12T08:49:25;20.60;52.00
60909;DHT22;46780;48.128;-1.704;2022-10-12T08:51:56;20.80;51.50
60909;DHT22;46780;48.128;-1.704;2022-10-12T08:54:24;21.00;52.30
60909;DHT22;46780;48.128;-1.704;2022-10-12T08:56:52;21.20;50.60
60909;DHT22;46780;48.128;-1.704;2022-10-12T08:59:19;21.30;50.10
60909;DHT22;46780;48.128;-1.704;2022-10-12T09:02:24;21.50;49.80
60909;DHT22;46780;48.128;-1.704;2022-10-12T09:04:54;21.80;48.80
60909;DHT22;46780;48.128;-1.704;2022-10-12T09:07:26;21.90;48.90
60909;DHT22;46780;48.128;-1.704;2022-10-12T09:10:02;22.00;48.40
60909;DHT22;46780;48.128;-1.704;2022-10-12T09:12:41;22.10;48.00
60909;DHT22;46780;48.128;-1.704;2022-10-12T09:15:13;22.10;47.90
60909;DHT22;46780;48.128;-1.704;2022-10-12T09:17:45;22.20;47.80
60909;DHT22;46780;48.128;-1.704;2022-10-12T09:20:17;22.20;47.70
60909;DHT22;46780;48.128;-1.704;2022-10-12T09:22:47;22.30;47.50
60909;DHT22;46780;48.128;-1.704;2022-10-12T09:25:15;22.40;47.40
60909;DHT22;46780;48.128;-1.704;2022-10-12T09:27:45;22.60;47.50
60909;DHT22;46780;48.128;-1.704;2022-10-12T09:30:13;22.70;47.20
60909;DHT22;46780;48.128;-1.704;2022-10-12T09:35:32;22.90;47.10
60909;DHT22;46780;48.128;-1.704;2022-10-12T09:38:00;23.00;47.00
60909;DHT22;46780;48.128;-1.704;2022-10-12T09:40:28;23.10;47.00
60909;DHT22;46780;48.128;-1.704;2022-10-12T09:42:55;23.20;47.00
60909;DHT22;46780;48.128;-1.704;2022-10-12T09:45:23;23.30;47.00
60909;DHT22;46780;48.128;-1.704;2022-10-12T09:48:15;23.40;47.00
60909;DHT22;46780;48.128;-1.704;2022-10-12T09:50:45;23.50;46.70
60909;DHT22;46780;48.128;-1.704;2022-10-12T09:53:18;23.60;47.00
60909;DHT22;46780;48.128;-1.704;2022-10-12T09:55:52;23.80;46.90
60909;DHT22;46780;48.128;-1.704;2022-10-12T09:58:20;23.90;46.80
60909;DHT22;46780;48.128;-1.704;2022-10-12T10:01:12;24.00;46.90
60909;DHT22;46780;48.128;-1.704;2022-10-12T10:03:40;24.10;46.60
60909;DHT22;46780;48.128;-1.704;2022-10-12T10:06:07;24.10;46.40
60909;DHT22;46780;48.128;-1.704;2022-10-12T10:08:39;24.20;46.30
60909;DHT22;46780;48.128;-1.704;2022-10-12T10:11:13;24.20;46.50
60909;DHT22;46780;48.128;-1.704;2022-10-12T10:13:46;24.30;46.70
60909;DHT22;46780;48.128;-1.704;2022-10-12T10:16:13;24.40;46.70
60909;DHT22;46780;48.128;-1.704;2022-10-12T10:18:42;24.50;46.30
60909;DHT22;46780;48.128;-1.704;2022-10-12T10:21:11;24.60;46.20
60909;DHT22;46780;48.128;-1.704;2022-10-12T10:23:41;24.60;46.20
60909;DHT22;46780;48.128;-1.704;2022-10-12T10:26:11;24.80;46.30
60909;DHT22;46780;48.128;-1.704;2022-10-12T10:28:40;24.90;46.30
60909;DHT22;46780;48.128;-1.704;2022-10-12T10:31:21;25.00;46.00
60909;DHT22;46780;48.128;-1.704;2022-10-12T10:34:12;25.10;45.90
60909;DHT22;46780;48.128;-1.704;2022-10-12T10:36:43;25.10;46.10
60909;DHT22;46780;48.128;-1.704;2022-10-12T10:39:17;25.20;46.10
60909;DHT22;46780;48.128;-1.704;2022-10-12T10:41:44;25.30;45.90
60909;DHT22;46780;48.128;-1.704;2022-10-12T10:44:25;25.40;45.80
60909;DHT22;46780;48.128;-1.704;2022-10-12T10:46:52;25.40;45.70
60909;DHT22;46780;48.128;-1.704;2022-10-12T10:49:26;25.10;45.90
60909;DHT22;46780;48.128;-1.704;2022-10-12T10:51:56;24.70;46.40
60909;DHT22;46780;48.128;-1.704;2022-10-12T10:54:27;24.20;47.40
60909;DHT22;46780;48.128;-1.704;2022-10-12T10:56:58;23.80;48.30
60909;DHT22;46780;48.128;-1.704;2022-10-12T10:59:35;23.30;49.50
60909;DHT22;46780;48.128;-1.704;2022-10-12T11:02:14;22.90;50.70
60909;DHT22;46780;48.128;-1.704;2022-10-12T11:04:45;22.50;51.90
60909;DHT22;46780;48.128;-1.704;2022-10-12T11:07:19;22.40;53.10
60909;DHT22;46780;48.128;-1.704;2022-10-12T11:09:52;22.50;53.30
60909;DHT22;46780;48.128;-1.704;2022-10-12T11:12:24;22.50;53.60
60909;DHT22;46780;48.128;-1.704;2022-10-12T11:14:54;22.40;53.90
60909;DHT22;46780;48.128;-1.704;2022-10-12T11:17:26;22.30;54.30
60909;DHT22;46780;48.128;-1.704;2022-10-12T11:20:04;22.20;55.00
60909;DHT22;46780;48.128;-1.704;2022-10-12T11:22:35;22.20;55.80
60909;DHT22;46780;48.128;-1.704;2022-10-12T11:25:07;22.30;56.50
60909;DHT22;46780;48.128;-1.704;2022-10-12T11:27:36;22.60;56.30
60909;DHT22;46780;48.128;-1.704;2022-10-12T11:30:12;22.70;55.50
60909;DHT22;46780;48.128;-1.704;2022-10-12T11:32:41;22.70;55.30
60909;DHT22;46780;48.128;-1.704;2022-10-12T11:35:15;22.90;55.00
60909;DHT22;46780;48.128;-1.704;2022-10-12T11:37:46;22.90;53.80
60909;DHT22;46780;48.128;-1.704;2022-10-12T11:40:18;22.80;53.50
60909;DHT22;46780;48.128;-1.704;2022-10-12T11:42:47;22.90;54.30
60909;DHT22;46780;48.128;-1.704;2022-10-12T11:45:19;23.10;53.90
60909;DHT22;46780;48.128;-1.704;2022-10-12T11:47:50;23.20;53.50
60909;DHT22;46780;48.128;-1.704;2022-10-12T11:50:27;23.30;53.30
60909;DHT22;46780;48.128;-1.704;2022-10-12T11:52:55;23.30;52.50
60909;DHT22;46780;48.128;-1.704;2022-10-12T11:55:29;23.30;51.70
60909;DHT22;46780;48.128;-1.704;2022-10-12T11:57:59;23.20;50.70
60909;DHT22;46780;48.128;-1.704;2022-10-12T12:00:33;23.20;50.90
60909;DHT22;46780;48.128;-1.704;2022-10-12T12:03:09;23.50;49.20
60909;DHT22;46780;48.128;-1.704;2022-10-12T12:05:42;23.60;47.50
60909;DHT22;46780;48.128;-1.704;2022-10-12T12:08:20;23.70;47.20
60909;DHT22;46780;48.128;-1.704;2022-10-12T12:11:02;23.80;47.10
60909;DHT22;46780;48.128;-1.704;2022-10-12T12:13:29;23.50;46.80
60909;DHT22;46780;48.128;-1.704;2022-10-12T12:16:29;23.20;47.20
60909;DHT22;46780;48.128;-1.704;2022-10-12T12:22:15;22.60;49.40
60909;DHT22;46780;48.128;-1.704;2022-10-12T12:24:52;22.90;50.00
60909;DHT22;46780;48.128;-1.704;2022-10-12T12:27:21;23.30;49.70
60909;DHT22;46780;48.128;-1.704;2022-10-12T12:29:50;23.40;49.30
60909;DHT22;46780;48.128;-1.704;2022-10-12T12:32:17;23.30;49.60
60909;DHT22;46780;48.128;-1.704;2022-10-12T12:34:50;23.50;49.30
60909;DHT22;46780;48.128;-1.704;2022-10-12T12:37:20;23.80;48.60
60909;DHT22;46780;48.128;-1.704;2022-10-12T12:39:51;23.70;48.20
60909;DHT22;46780;48.128;-1.704;2022-10-12T12:42:22;23.50;48.60
60909;DHT22;46780;48.128;-1.704;2022-10-12T12:44:49;23.20;48.90
60909;DHT22;46780;48.128;-1.704;2022-10-12T12:47:21;22.90;49.50
60909;DHT22;46780;48.128;-1.704;2022-10-12T12:53:04;22.40;51.00
60909;DHT22;46780;48.128;-1.704;2022-10-12T12:55:48;22.20;51.70
60909;DHT22;46780;48.128;-1.704;2022-10-12T12:58:50;22.00;51.90
60909;DHT22;46780;48.128;-1.704;2022-10-12T13:01:35;21.80;52.40
60909;DHT22;46780;48.128;-1.704;2022-10-12T13:07:31;22.10;53.20
60909;DHT22;46780;48.128;-1.704;2022-10-12T13:10:21;22.70;52.60
60909;DHT22;46780;48.128;-1.704;2022-10-12T13:13:12;23.00;50.00
60909;DHT22;46780;48.128;-1.704;2022-10-12T13:15:58;23.10;49.70
60909;DHT22;46780;48.128;-1.704;2022-10-12T13:18:51;22.90;49.00
60909;DHT22;46780;48.128;-1.704;2022-10-12T13:21:23;22.70;49.30
60909;DHT22;46780;48.128;-1.704;2022-10-12T13:23:56;22.60;50.00
60909;DHT22;46780;48.128;-1.704;2022-10-12T13:26:28;22.60;50.30
60909;DHT22;46780;48.128;-1.704;2022-10-12T13:28:56;22.50;50.20
60909;DHT22;46780;48.128;-1.704;2022-10-12T13:31:30;22.50;50.10
60909;DHT22;46780;48.128;-1.704;2022-10-12T13:34:04;22.40;50.40
60909;DHT22;46780;48.128;-1.704;2022-10-12T13:36:43;22.40;51.00
60909;DHT22;46780;48.128;-1.704;2022-10-12T13:39:15;22.60;51.10
60909;DHT22;46780;48.128;-1.704;2022-10-12T13:41:43;22.90;50.50
60909;DHT22;46780;48.128;-1.704;2022-10-12T13:44:19;22.80;49.10
60909;DHT22;46780;48.128;-1.704;2022-10-12T13:46:46;22.60;49.20
60909;DHT22;46780;48.128;-1.704;2022-10-12T13:49:16;22.40;49.60
60909;DHT22;46780;48.128;-1.704;2022-10-12T13:51:44;22.30;50.20
60909;DHT22;46780;48.128;-1.704;2022-10-12T13:54:16;22.20;51.50
60909;DHT22;46780;48.128;-1.704;2022-10-12T13:56:44;22.10;51.00
60909;DHT22;46780;48.128;-1.704;2022-10-12T13:59:14;22.00;51.30
60909;DHT22;46780;48.128;-1.704;2022-10-12T14:01:53;22.00;51.60
60909;DHT22;46780;48.128;-1.704;2022-10-12T14:04:21;21.90;51.70
60909;DHT22;46780;48.128;-1.704;2022-10-12T14:06:54;22.00;52.20
60909;DHT22;46780;48.128;-1.704;2022-10-12T14:09:23;22.10;51.90
60909;DHT22;46780;48.128;-1.704;2022-10-12T14:11:52;22.40;51.60
60909;DHT22;46780;48.128;-1.704;2022-10-12T14:14:26;22.50;50.90
60909;DHT22;46780;48.128;-1.704;2022-10-12T14:16:54;22.60;50.50
60909;DHT22;46780;48.128;-1.704;2022-10-12T14:19:32;22.60;50.30
60909;DHT22;46780;48.128;-1.704;2022-10-12T14:21:59;22.60;49.70
60909;DHT22;46780;48.128;-1.704;2022-10-12T14:24:26;22.60;49.70
60909;DHT22;46780;48.128;-1.704;2022-10-12T14:26:55;22.50;49.80
60909;DHT22;46780;48.128;-1.704;2022-10-12T14:29:33;22.50;49.70
60909;DHT22;46780;48.128;-1.704;2022-10-12T14:32:02;22.40;49.90
60909;DHT22;46780;48.128;-1.704;2022-10-12T14:34:38;22.20;50.20
60909;DHT22;46780;48.128;-1.704;2022-10-12T14:37:25;22.10;50.70
60909;DHT22;46780;48.128;-1.704;2022-10-12T14:39:52;22.00;51.10
60909;DHT22;46780;48.128;-1.704;2022-10-12T14:42:25;21.80;51.20
60909;DHT22;46780;48.128;-1.704;2022-10-12T14:44:52;21.70;51.50
60909;DHT22;46780;48.128;-1.704;2022-10-12T14:47:20;21.70;51.80
60909;DHT22;46780;48.128;-1.704;2022-10-12T14:49:50;21.70;51.80
60909;DHT22;46780;48.128;-1.704;2022-10-12T14:52:21;21.70;51.70
60909;DHT22;46780;48.128;-1.704;2022-10-12T14:54:49;21.70;51.70
60909;DHT22;46780;48.128;-1.704;2022-10-12T14:57:16;21.70;52.20
60909;DHT22;46780;48.128;-1.704;2022-10-12T14:59:45;21.70;52.50
60909;DHT22;46780;48.128;-1.704;2022-10-12T15:02:14;21.60;52.50
60909;DHT22;46780;48.128;-1.704;2022-10-12T15:04:41;21.60;52.60
60909;DHT22;46780;48.128;-1.704;2022-10-12T15:07:13;21.50;52.80
60909;DHT22;46780;48.128;-1.704;2022-10-12T15:09:40;21.40;53.40
60909;DHT22;46780;48.128;-1.704;2022-10-12T15:12:07;21.40;53.70
60909;DHT22;46780;48.128;-1.704;2022-10-12T15:14:34;21.30;54.10
60909;DHT22;46780;48.128;-1.704;2022-10-12T15:17:02;21.30;54.20
60909;DHT22;46780;48.128;-1.704;2022-10-12T15:19:28;21.30;54.40
60909;DHT22;46780;48.128;-1.704;2022-10-12T15:21:55;21.20;54.60
60909;DHT22;46780;48.128;-1.704;2022-10-12T15:24:21;21.20;54.60
60909;DHT22;46780;48.128;-1.704;2022-10-12T15:26:48;21.20;54.80
60909;DHT22;46780;48.128;-1.704;2022-10-12T15:29:14;21.10;55.10
60909;DHT22;46780;48.128;-1.704;2022-10-12T15:31:40;21.10;55.50
60909;DHT22;46780;48.128;-1.704;2022-10-12T15:34:11;21.10;55.80
60909;DHT22;46780;48.128;-1.704;2022-10-12T15:36:38;21.00;56.30
60909;DHT22;46780;48.128;-1.704;2022-10-12T15:39:05;20.90;56.50
60909;DHT22;46780;48.128;-1.704;2022-10-12T15:41:31;20.90;56.90
60909;DHT22;46780;48.128;-1.704;2022-10-12T15:43:58;20.80;57.30
60909;DHT22;46780;48.128;-1.704;2022-10-12T15:46:25;20.80;57.90
60909;DHT22;46780;48.128;-1.704;2022-10-12T15:48:51;20.70;58.30